Time;durP1;ratioP1;P1;durP2;ratioP2;P2;SDS_P1;SDS_P2;PMS_P1;PMS_P2;Temp;Humidity;BMP_temperature;BMP_pressure;BME280_temperature;BME280_humidity;BME280_pressure;Samples;Min_cycle;Max_cycle;Signal;HPM_P1;HPM_P2
2021/10/26 00:00:37;;;;;;;11.85;7.30;;;;;;;10.06;92.73;101622.47;4922279;28;20039;-74
2021/10/26 00:03:02;;;;;;;15.20;8.15;;;;;;;10.15;92.47;101615.63;4944939;28;20040;-74
2021/10/26 00:05:28;;;;;;;18.48;8.68;;;;;;;10.11;92.42;101622.03;4911834;28;20496;-74
2021/10/26 00:07:53;;;;;;;13.60;7.50;;;;;;;10.08;92.70;101609.38;4930835;28;20073;-74
2021/10/26 00:10:20;;;;;;;13.38;7.38;;;;;;;10.07;92.75;101612.91;4932296;28;20050;-74
2021/10/26 00:12:45;;;;;;;14.80;7.35;;;;;;;10.05;92.90;101623.41;4928075;28;20032;-73
2021/10/26 00:15:11;;;;;;;14.70;8.30;;;;;;;10.05;92.84;101622.59;4923288;28;20032;-74
2021/10/26 00:17:36;;;;;;;16.90;7.28;;;;;;;10.04;93.10;101611.41;4912893;29;20634;-73
2021/10/26 00:20:05;;;;;;;13.95;7.07;;;;;;;10.06;92.96;101613.88;4930623;28;20098;-74
2021/10/26 00:22:30;;;;;;;12.98;7.68;;;;;;;10.17;92.70;101611.16;4926057;28;20028;-73
2021/10/26 00:24:56;;;;;;;13.40;7.82;;;;;;;10.11;92.72;101609.94;4924022;28;20032;-74
2021/10/26 00:27:21;;;;;;;11.57;7.03;;;;;;;10.09;92.81;101616.19;4915735;28;20771;-74
2021/10/26 00:29:48;;;;;;;12.27;7.43;;;;;;;10.08;92.83;101612.78;4929634;28;20061;-73
2021/10/26 00:32:14;;;;;;;14.75;7.40;;;;;;;10.05;92.90;101613.03;4926780;29;20023;-74
2021/10/26 00:34:40;;;;;;;17.45;8.40;;;;;;;10.21;92.59;101612.53;4911251;29;20125;-73
2021/10/26 00:37:06;;;;;;;14.88;8.02;;;;;;;10.16;92.21;101614.69;4927296;28;20038;-74
2021/10/26 00:39:31;;;;;;;15.52;8.80;;;;;;;10.13;91.83;101620.13;4924180;29;20031;-74
2021/10/26 00:41:58;;;;;;;15.30;7.47;;;;;;;10.08;92.56;101619.75;4907177;28;20043;-74
2021/10/26 00:44:23;;;;;;;18.13;8.30;;;;;;;10.11;92.61;101620.28;4927057;28;20023;-73
2021/10/26 00:46:49;;;;;;;13.30;7.65;;;;;;;10.07;92.64;101618.09;4927569;29;20096;-73
2021/10/26 00:49:15;;;;;;;14.32;7.32;;;;;;;10.04;92.92;101619.19;4925828;28;20439;-74
2021/10/26 00:51:41;;;;;;;15.68;8.07;;;;;;;10.05;93.24;101620.81;4943879;28;20035;-73
2021/10/26 00:54:07;;;;;;;14.48;7.57;;;;;;;10.04;93.28;101620.94;4926300;28;20040;-74
2021/10/26 00:56:39;;;;;;;18.08;8.15;;;;;;;10.05;92.86;101625.19;4924316;28;20166;-74
2021/10/26 00:59:04;;;;;;;13.20;7.88;;;;;;;10.03;92.97;101620.13;4917097;28;20595;-74
2021/10/26 01:01:35;;;;;;;16.42;8.45;;;;;;;10.06;92.90;101626.81;4924327;28;20066;-73
2021/10/26 01:04:01;;;;;;;15.85;8.35;;;;;;;10.04;93.01;101629.53;4922341;28;20513;-74
2021/10/26 01:06:28;;;;;;;15.57;8.13;;;;;;;10.06;92.88;101627.66;4938801;28;20086;-73
2021/10/26 01:08:53;;;;;;;15.18;9.63;;;;;;;10.02;92.96;101618.50;4924318;28;20412;-74
2021/10/26 01:11:19;;;;;;;16.33;8.80;;;;;;;9.96;92.96;101616.41;4906480;28;20094;-74
2021/10/26 01:13:49;;;;;;;17.10;9.00;;;;;;;9.96;92.71;101623.38;4924967;28;20504;-73
2021/10/26 01:16:15;;;;;;;20.67;11.13;;;;;;;9.93;93.09;101635.63;4925087;28;20081;-74
2021/10/26 01:18:42;;;;;;;22.52;10.95;;;;;;;9.88;93.11;101627.44;4927935;28;20039;-73
2021/10/26 01:21:07;;;;;;;21.08;10.48;;;;;;;9.86;93.43;101634.53;4907698;28;20035;-74
2021/10/26 01:23:33;;;;;;;18.73;8.88;;;;;;;9.85;93.67;101632.06;4925536;28;20043;-74
2021/10/26 01:26:00;;;;;;;18.15;9.77;;;;;;;9.88;93.41;101630.03;4926898;29;20082;-74
2021/10/26 01:28:26;;;;;;;16.48;9.05;;;;;;;9.89;93.28;101631.69;4907173;29;20562;-74
2021/10/26 01:30:54;;;;;;;14.98;8.32;;;;;;;9.86;93.39;101634.53;4924126;28;20036;-73
2021/10/26 01:33:38;;;;;;;16.00;8.05;;;;;;;9.82;93.55;101638.31;4926584;28;20218;-74
2021/10/26 01:36:10;;;;;;;13.35;8.05;;;;;;;9.81;93.60;101641.03;4924699;28;20039;-74
2021/10/26 01:38:36;;;;;;;25.35;9.98;;;;;;;9.82;93.66;101633.16;4926967;28;20668;-74
2021/10/26 01:41:02;;;;;;;15.23;9.55;;;;;;;9.83;93.84;101639.13;4926216;28;20027;-74
2021/10/26 01:43:28;;;;;;;16.70;9.05;;;;;;;9.81;94.20;101638.44;4943659;28;20039;-74
2021/10/26 01:45:55;;;;;;;17.02;8.45;;;;;;;9.81;93.92;101649.63;4938748;28;20124;-73
2021/10/26 01:48:30;;;;;;;16.85;8.43;;;;;;;9.80;93.93;101644.59;4924552;29;22547;-74
2021/10/26 01:50:58;;;;;;;20.13;9.73;;;;;;;9.76;94.12;101644.03;4927332;29;20480;-74
2021/10/26 01:53:26;;;;;;;16.85;9.23;;;;;;;9.84;94.30;101639.00;4930339;28;20031;-74
2021/10/26 01:55:52;;;;;;;19.25;9.05;;;;;;;9.89;94.16;101641.22;4924540;28;20395;-74
2021/10/26 01:58:18;;;;;;;16.95;8.90;;;;;;;9.85;94.12;101643.25;4929391;28;20143;-73
2021/10/26 02:01:09;;;;;;;18.50;9.13;;;;;;;9.82;94.29;101643.50;4913969;29;20317;-74
2021/10/26 02:03:34;;;;;;;19.15;10.02;;;;;;;9.88;94.21;101640.38;4910168;28;20031;-74
2021/10/26 02:06:03;;;;;;;18.08;8.05;;;;;;;9.87;94.45;101636.19;4933950;28;20024;-74
2021/10/26 02:08:28;;;;;;;18.27;9.02;;;;;;;9.87;94.60;101643.94;4920238;28;20100;-74
2021/10/26 02:10:54;;;;;;;18.48;9.07;;;;;;;9.87;94.70;101636.19;4926424;28;20489;-74
2021/10/26 02:13:19;;;;;;;17.80;9.23;;;;;;;9.89;94.67;101629.09;4926471;28;20036;-74
2021/10/26 02:15:45;;;;;;;17.45;9.43;;;;;;;9.89;94.58;101630.88;4910881;28;20028;-74
2021/10/26 02:18:11;;;;;;;19.67;9.80;;;;;;;9.90;94.47;101624.72;4924342;29;20028;-74
2021/10/26 02:20:37;;;;;;;20.08;10.13;;;;;;;9.86;94.89;101626.75;4916587;28;20036;-72
2021/10/26 02:23:03;;;;;;;16.95;9.18;;;;;;;9.97;94.59;101619.84;4929105;29;20036;-75
2021/10/26 02:25:30;;;;;;;16.17;9.75;;;;;;;10.10;94.23;101633.38;4921663;28;20546;-74
2021/10/26 02:27:56;;;;;;;20.27;10.20;;;;;;;10.04;94.05;101631.28;4929365;28;20404;-73
2021/10/26 02:30:23;;;;;;;16.70;9.38;;;;;;;10.11;94.05;101635.00;4911466;28;20036;-74
2021/10/26 02:32:49;;;;;;;21.77;9.93;;;;;;;10.10;93.80;101634.19;4924413;28;20054;-73
2021/10/26 02:35:14;;;;;;;19.00;9.13;;;;;;;10.05;94.47;101632.94;4932543;28;20028;-73
2021/10/26 02:37:40;;;;;;;26.08;10.60;;;;;;;10.03;94.44;101627.09;4927765;29;20035;-74
2021/10/26 02:40:07;;;;;;;19.92;9.32;;;;;;;9.97;94.74;101628.44;4922105;29;20040;-74
2021/10/26 02:42:32;;;;;;;19.70;11.00;;;;;;;9.99;94.93;101641.25;4928510;29;20059;-74
2021/10/26 02:44:58;;;;;;;21.88;10.25;;;;;;;10.01;94.90;101640.16;4912976;29;20079;-74
2021/10/26 02:47:42;;;;;;;20.83;9.55;;;;;;;9.98;94.93;101630.06;4925130;29;20416;-74
2021/10/26 02:50:08;;;;;;;22.48;10.38;;;;;;;9.94;95.25;101636.44;4926652;28;20063;-73
2021/10/26 02:52:36;;;;;;;20.35;10.02;;;;;;;10.04;95.30;101636.47;4927732;28;20032;-73
2021/10/26 02:55:03;;;;;;;19.40;10.07;;;;;;;9.99;95.01;101643.84;4924654;28;20031;-73
2021/10/26 02:57:29;;;;;;;16.08;9.07;;;;;;;9.94;95.54;101634.72;4928974;28;20031;-74
2021/10/26 02:59:54;;;;;;;26.38;11.07;;;;;;;10.03;95.13;101635.66;4928721;28;20040;-72
2021/10/26 03:02:20;;;;;;;20.70;10.63;;;;;;;10.02;95.27;101638.38;4939849;28;20032;-74
2021/10/26 03:04:46;;;;;;;21.20;10.75;;;;;;;9.95;95.26;101638.09;4929063;28;20039;-73
2021/10/26 03:07:11;;;;;;;23.55;10.80;;;;;;;9.97;95.10;101632.81;4928094;28;20116;-74
2021/10/26 03:09:37;;;;;;;19.50;10.18;;;;;;;9.93;95.52;101637.44;4912249;28;20565;-74
2021/10/26 03:12:03;;;;;;;26.08;11.52;;;;;;;9.94;95.66;101624.34;4919552;29;20119;-74
2021/10/26 03:14:28;;;;;;;22.83;10.60;;;;;;;9.97;95.41;101630.22;4924233;29;20036;-73
2021/10/26 03:16:54;;;;;;;29.35;11.77;;;;;;;9.97;95.46;101628.44;4910071;29;20028;-73
2021/10/26 03:19:20;;;;;;;18.17;10.23;;;;;;;9.93;95.55;101627.88;4921042;28;20047;-74
2021/10/26 03:21:45;;;;;;;23.23;11.07;;;;;;;10.00;95.16;101640.28;4908474;28;20044;-74
2021/10/26 03:24:11;;;;;;;22.65;10.95;;;;;;;9.99;95.23;101641.25;4925471;29;20035;-74
2021/10/26 03:26:36;;;;;;;25.95;11.15;;;;;;;10.07;94.99;101636.22;4927864;28;20032;-73
2021/10/26 03:29:05;;;;;;;25.27;11.10;;;;;;;10.01;94.95;101634.16;4926984;28;20089;-74
2021/10/26 03:31:30;;;;;;;28.10;10.55;;;;;;;9.92;95.23;101639.16;4927424;28;20481;-74
2021/10/26 03:34:14;;;;;;;26.13;12.07;;;;;;;9.92;95.47;101640.94;4925005;28;20058;-74
2021/10/26 03:36:41;;;;;;;22.13;10.77;;;;;;;9.92;95.33;101649.53;4921927;29;20048;-74
2021/10/26 03:39:07;;;;;;;21.15;11.40;;;;;;;9.93;95.44;101640.00;4927508;28;20467;-74
2021/10/26 03:41:33;;;;;;;31.67;13.10;;;;;;;10.02;94.97;101647.00;4921018;28;20036;-75
2021/10/26 03:44:01;;;;;;;24.98;12.13;;;;;;;10.10;94.95;101641.16;4910638;29;20043;-74
2021/10/26 03:46:27;;;;;;;20.65;12.13;;;;;;;10.22;94.48;101641.84;4927005;29;20044;-74
2021/10/26 03:48:53;;;;;;;25.75;11.80;;;;;;;10.14;94.42;101650.31;4909661;29;20043;-73
2021/10/26 03:51:19;;;;;;;23.63;11.40;;;;;;;10.12;94.90;101658.19;4913376;28;20054;-74
2021/10/26 03:53:44;;;;;;;24.60;11.70;;;;;;;10.04;94.79;101654.63;4922164;28;20043;-75
2021/10/26 03:56:10;;;;;;;23.17;11.52;;;;;;;10.20;94.86;101651.53;4927335;28;20031;-74
2021/10/26 03:58:39;;;;;;;25.17;11.43;;;;;;;10.17;94.24;101656.97;4926077;28;20085;-74
2021/10/26 04:01:16;;;;;;;35.03;12.05;;;;;;;10.22;94.33;101662.59;4926307;28;20023;-74
2021/10/26 04:03:42;;;;;;;29.27;10.80;;;;;;;10.23;94.37;101667.66;4925126;29;20117;-74
2021/10/26 04:06:14;;;;;;;23.90;12.00;;;;;;;10.25;94.34;101672.72;4926021;28;20023;-75
2021/10/26 04:13:38;;;;;;;21.20;11.50;;;;;;;10.15;94.48;101675.25;4966931;28;20884;-74
2021/10/26 04:16:04;;;;;;;28.08;12.68;;;;;;;10.10;95.02;101682.63;4933558;28;20556;-74
2021/10/26 04:18:30;;;;;;;26.90;12.48;;;;;;;10.18;94.98;101684.56;4918247;28;20258;-74
2021/10/26 04:20:55;;;;;;;28.85;11.85;;;;;;;10.17;94.76;101696.69;4933907;28;21063;-74
2021/10/26 04:23:23;;;;;;;27.00;11.63;;;;;;;10.13;95.12;101688.38;4926581;29;20027;-74
2021/10/26 04:25:50;;;;;;;24.63;11.55;;;;;;;10.22;95.03;101693.69;4922822;28;20043;-74
2021/10/26 04:28:16;;;;;;;23.15;11.40;;;;;;;10.12;95.06;101694.47;4911401;28;20047;-74
2021/10/26 04:30:42;;;;;;;28.67;11.63;;;;;;;10.12;95.41;101701.44;4930653;29;20046;-74
2021/10/26 04:33:14;;;;;;;26.13;11.15;;;;;;;10.14;94.94;101691.78;4938212;28;20401;-74
2021/10/26 04:35:40;;;;;;;25.30;11.88;;;;;;;10.14;95.16;101689.19;4923616;28;20039;-74
2021/10/26 04:38:06;;;;;;;26.75;11.85;;;;;;;10.17;94.75;101683.75;4925261;29;20034;-74
2021/10/26 04:40:33;;;;;;;25.50;12.32;;;;;;;10.16;95.19;101683.88;4906583;28;20025;-74
2021/10/26 04:43:05;;;;;;;;;;;;;;;10.28;94.11;101688.81;4933294;28;20107;-74
2021/10/26 04:45:33;;;;;;;29.00;12.18;;;;;;;10.30;94.36;101696.44;4921659;29;19933;-74
2021/10/26 04:48:00;;;;;;;23.95;11.40;;;;;;;10.30;94.46;101693.84;4925214;28;20052;-74
2021/10/26 04:50:30;;;;;;;24.85;11.57;;;;;;;10.25;94.18;101694.25;4907946;28;20027;-74
2021/10/26 04:52:56;;;;;;;23.45;11.88;;;;;;;10.20;94.63;101700.78;4911314;29;20407;-74
2021/10/26 04:55:21;;;;;;;27.90;11.82;;;;;;;10.31;94.65;101700.72;4924747;28;20028;-73
2021/10/26 04:57:47;;;;;;;24.50;12.05;;;;;;;10.35;93.97;101694.31;4921107;29;20024;-74
2021/10/26 05:00:24;;;;;;;25.80;11.80;;;;;;;10.27;94.36;101694.94;4918537;29;20024;-74
2021/10/26 05:02:50;;;;;;;25.23;11.63;;;;;;;10.35;94.31;101688.31;4916577;29;20075;-74
2021/10/26 05:05:16;;;;;;;24.58;11.43;;;;;;;10.28;94.16;101699.19;4911898;28;20028;-73
2021/10/26 05:07:41;;;;;;;21.80;11.60;;;;;;;10.25;94.47;101699.44;4915220;28;20031;-74
2021/10/26 05:10:08;;;;;;;30.48;11.82;;;;;;;10.24;95.03;101702.16;4917202;29;20036;-73
2021/10/26 05:12:34;;;;;;;23.30;11.15;;;;;;;10.24;94.91;101709.94;4943166;28;20026;-73
2021/10/26 05:15:00;;;;;;;23.20;11.95;;;;;;;10.26;94.76;101708.84;4927471;28;20036;-74
2021/10/26 05:18:04;;;;;;;26.48;12.60;;;;;;;10.33;94.63;101715.19;4889906;28;20072;-74
2021/10/26 05:20:53;;;;;;;31.80;12.73;;;;;;;10.29;94.44;101721.56;4901060;29;20047;-74
2021/10/26 05:23:44;;;;;;;23.58;11.40;;;;;;;10.29;94.16;101723.34;4911387;28;20044;-73
2021/10/26 05:26:19;;;;;;;26.23;11.80;;;;;;;10.26;94.64;101721.81;4911647;29;21157;-74
2021/10/26 05:28:47;;;;;;;21.70;11.68;;;;;;;10.30;94.61;101718.06;4908036;29;20036;-74
2021/10/26 05:31:13;;;;;;;22.55;11.60;;;;;;;10.41;94.20;101722.28;4921520;28;20662;-74
2021/10/26 05:33:39;;;;;;;25.95;12.85;;;;;;;10.39;94.22;101723.38;4910395;28;20027;-74
2021/10/26 05:36:05;;;;;;;23.02;11.90;;;;;;;10.42;93.86;101721.34;4926082;28;20043;-74
2021/10/26 05:38:32;;;;;;;26.63;12.48;;;;;;;10.38;94.02;101714.81;4909393;28;20035;-74
2021/10/26 05:40:58;;;;;;;27.67;13.82;;;;;;;10.41;93.79;101727.47;4915606;28;20071;-74
2021/10/26 05:43:24;;;;;;;28.00;12.73;;;;;;;10.42;93.73;101723.94;4910523;28;20036;-74
2021/10/26 05:45:49;;;;;;;23.88;12.10;;;;;;;10.32;93.95;101728.25;4925720;28;20032;-74
2021/10/26 05:48:16;;;;;;;27.50;11.82;;;;;;;10.30;93.97;101724.97;4904633;28;20035;-74
2021/10/26 05:50:43;;;;;;;24.80;12.07;;;;;;;10.38;93.56;101719.16;4922862;29;20431;-74
2021/10/26 05:53:09;;;;;;;26.13;12.23;;;;;;;10.44;93.49;101731.59;4909630;28;20423;-74
2021/10/26 05:55:35;;;;;;;27.70;12.30;;;;;;;10.32;93.97;101736.03;4925607;28;20420;-75
2021/10/26 05:58:00;;;;;;;22.42;12.52;;;;;;;10.29;93.95;101736.28;4923488;28;20047;-74
2021/10/26 06:00:26;;;;;;;24.48;12.38;;;;;;;10.33;93.68;101728.13;4928350;28;20036;-74
2021/10/26 06:02:52;;;;;;;28.15;11.38;;;;;;;10.42;93.19;101733.50;4923510;28;20024;-75
2021/10/26 06:05:18;;;;;;;23.90;10.98;;;;;;;10.33;93.50;101733.31;4909430;28;20667;-74
2021/10/26 06:07:43;;;;;;;27.13;12.57;;;;;;;10.25;93.89;101737.50;4929192;29;20042;-74
2021/10/26 06:10:10;;;;;;;26.23;11.10;;;;;;;10.28;93.73;101745.00;4914357;28;20020;-74
2021/10/26 06:12:45;;;;;;;20.50;12.40;;;;;;;10.31;93.76;101743.00;4918540;29;20052;-74
2021/10/26 06:15:11;;;;;;;26.20;12.48;;;;;;;10.29;93.49;101744.06;4922169;28;20070;-74
2021/10/26 06:17:36;;;;;;;28.30;12.00;;;;;;;10.26;93.56;101749.50;4914113;28;20019;-74
2021/10/26 06:20:04;;;;;;;23.20;12.77;;;;;;;10.25;93.98;101756.47;4916834;28;20086;-74
2021/10/26 06:22:30;;;;;;;21.45;11.60;;;;;;;10.19;94.32;101761.34;4925181;28;20032;-74
2021/10/26 06:24:56;;;;;;;32.72;12.57;;;;;;;10.19;94.61;101763.94;4910385;28;20488;-74
2021/10/26 06:27:22;;;;;;;26.30;13.30;;;;;;;10.28;93.70;101769.19;4907863;28;20113;-74
2021/10/26 06:29:49;;;;;;;24.10;11.25;;;;;;;10.26;94.01;101770.25;4918098;28;20039;-74
2021/10/26 06:32:29;;;;;;;23.45;12.52;;;;;;;10.23;93.85;101779.13;4922799;28;20481;-72
2021/10/26 06:34:55;;;;;;;27.05;11.93;;;;;;;10.27;93.71;101782.28;4924320;29;20047;-74
2021/10/26 06:37:22;;;;;;;29.98;11.98;;;;;;;10.29;94.01;101781.19;4925582;29;20031;-73
2021/10/26 06:39:54;;;;;;;26.50;11.93;;;;;;;10.25;93.76;101794.53;4929538;29;20070;-74
2021/10/26 06:42:19;;;;;;;21.25;12.93;;;;;;;10.26;94.09;101793.56;4937176;28;20035;-74
2021/10/26 06:45:04;;;;;;;23.00;11.07;;;;;;;10.19;94.09;101795.88;4924198;29;20519;-74
2021/10/26 06:47:48;;;;;;;21.58;13.02;;;;;;;10.16;94.45;101801.31;4927874;28;20050;-74
2021/10/26 06:50:32;;;;;;;21.55;11.85;;;;;;;10.14;94.59;101804.03;4929278;29;20057;-74
2021/10/26 06:53:22;;;;;;;28.63;12.70;;;;;;;10.21;94.63;101814.72;4938739;29;20071;-74
2021/10/26 06:56:13;;;;;;;27.42;12.18;;;;;;;10.25;94.39;101812.69;4921840;28;20702;-74
2021/10/26 06:58:57;;;;;;;26.90;11.13;;;;;;;10.30;94.16;101824.34;4928910;29;20058;-73
2021/10/26 07:02:03;;;;;;;26.83;12.93;;;;;;;10.31;94.06;101809.59;4913507;29;20047;-74
2021/10/26 07:04:53;;;;;;;26.13;12.68;;;;;;;10.33;93.95;101821.47;4920588;28;20046;-74
2021/10/26 07:07:39;;;;;;;30.10;12.38;;;;;;;10.38;94.13;101826.28;4903720;28;20384;-74
2021/10/26 07:10:12;;;;;;;27.63;11.93;;;;;;;10.46;93.15;101823.84;4954305;28;20032;-74
2021/10/26 07:12:55;;;;;;;26.92;12.48;;;;;;;10.55;92.90;101821.41;4926924;28;20089;-74
2021/10/26 07:15:21;;;;;;;25.05;10.98;;;;;;;10.44;93.30;101822.34;4910861;28;20496;-74
2021/10/26 07:17:47;;;;;;;28.55;11.63;;;;;;;10.58;92.94;101821.16;4913763;28;20024;-74
2021/10/26 07:20:15;;;;;;;25.73;11.82;;;;;;;10.59;93.09;101815.84;4927777;29;20499;-75
2021/10/26 07:23:16;;;;;;;30.15;12.10;;;;;;;10.66;92.09;101821.31;4881263;28;20111;-74
2021/10/26 07:26:00;;;;;;;23.55;11.20;;;;;;;10.68;92.70;101825.44;4925000;29;20424;-74
2021/10/26 07:28:27;;;;;;;22.33;11.30;;;;;;;10.65;92.51;101830.88;4921782;28;20094;-73
2021/10/26 07:30:52;;;;;;;30.67;12.20;;;;;;;10.58;92.72;101832.34;4922276;29;20027;-73
2021/10/26 07:33:24;;;;;;;24.13;10.07;;;;;;;10.63;92.87;101831.97;4918483;29;20040;-74
2021/10/26 07:35:53;;;;;;;22.08;10.25;;;;;;;10.66;92.83;101837.72;4925859;29;20047;-74
2021/10/26 07:38:30;;;;;;;24.17;10.38;;;;;;;10.62;93.05;101838.09;4921739;28;20027;-74
2021/10/26 07:40:57;;;;;;;21.98;10.13;;;;;;;10.72;92.45;101836.38;4924639;29;20508;-74
2021/10/26 07:43:41;;;;;;;21.40;10.00;;;;;;;10.81;91.86;101842.53;4926988;28;20051;-72
2021/10/26 07:46:33;;;;;;;23.45;9.85;;;;;;;10.87;91.53;101839.44;4913821;28;20036;-74
2021/10/26 07:49:02;;;;;;;22.02;10.25;;;;;;;10.88;91.37;101841.88;4924090;28;20031;-74
2021/10/26 07:51:28;;;;;;;23.50;10.25;;;;;;;10.93;91.03;101845.88;4916521;29;20028;-74
2021/10/26 07:53:54;;;;;;;25.77;9.93;;;;;;;10.93;90.69;101849.28;4922428;28;20039;-74
2021/10/26 07:56:23;;;;;;;24.77;8.90;;;;;;;10.97;90.52;101848.06;4923338;28;20089;-72
2021/10/26 07:58:49;;;;;;;22.63;8.93;;;;;;;10.88;90.56;101848.84;4927051;28;20089;-72
2021/10/26 08:01:32;;;;;;;24.08;8.52;;;;;;;10.92;90.72;101855.41;4916939;28;20051;-74
2021/10/26 08:04:25;;;;;;;21.10;8.82;;;;;;;10.97;90.52;101852.44;4924067;29;20078;-74
2021/10/26 08:07:18;;;;;;;21.33;8.45;;;;;;;10.99;90.79;101864.31;4919824;28;20054;-73
2021/10/26 08:09:47;;;;;;;21.38;7.93;;;;;;;11.06;90.58;101867.22;4927166;29;20035;-74
2021/10/26 08:12:13;;;;;;;18.38;7.63;;;;;;;11.13;90.33;101868.28;4928093;28;20126;-74
2021/10/26 08:14:40;;;;;;;18.10;6.88;;;;;;;11.06;90.19;101881.00;4938013;28;20090;-73
2021/10/26 08:17:06;;;;;;;22.23;7.88;;;;;;;11.08;89.44;101871.31;4920632;28;20031;-73
2021/10/26 08:19:32;;;;;;;17.65;6.55;;;;;;;11.10;90.32;101871.97;4940987;28;20046;-74
2021/10/26 08:22:01;;;;;;;18.17;7.38;;;;;;;11.27;89.15;101874.91;4916711;28;20074;-74
2021/10/26 08:24:31;;;;;;;21.80;6.70;;;;;;;11.33;89.27;101863.16;4928753;28;20027;-73
2021/10/26 08:26:58;;;;;;;19.55;6.93;;;;;;;11.26;88.78;101863.69;4921575;28;20041;-74
2021/10/26 08:32:25;;;;;;;20.15;5.97;;;;;;;11.30;88.67;101857.28;4929155;28;20039;-75
2021/10/26 08:37:51;;;;;;;16.83;5.45;;;;;;;11.71;87.07;101856.31;4920309;28;20040;-73
2021/10/26 08:40:18;;;;;;;16.20;5.32;;;;;;;11.61;86.77;101858.94;4931384;28;20032;-74
2021/10/26 08:42:48;;;;;;;12.43;5.43;;;;;;;11.66;87.28;101843.75;4921490;28;20028;-73
2021/10/26 08:45:20;;;;;;;15.65;5.78;;;;;;;11.77;86.71;101854.00;4944311;28;20028;-74
2021/10/26 08:47:46;;;;;;;16.40;6.57;;;;;;;11.77;86.27;101854.00;4931174;28;20028;-73
2021/10/26 08:50:34;;;;;;;11.88;5.00;;;;;;;11.88;86.42;101859.06;4921157;29;20054;-73
2021/10/26 08:53:01;;;;;;;21.67;6.15;;;;;;;11.92;85.43;101851.81;4903492;28;20321;-74
2021/10/26 08:55:55;;;;;;;17.15;6.05;;;;;;;11.85;85.23;101855.91;4925289;28;20309;-75
2021/10/26 08:58:39;;;;;;;17.45;5.95;;;;;;;11.78;85.21;101860.81;4917063;29;20058;-73
2021/10/26 09:01:06;;;;;;;14.57;5.68;;;;;;;11.81;86.07;101859.72;4916729;28;20036;-74
2021/10/26 09:03:37;;;;;;;13.05;5.78;;;;;;;12.00;84.95;101853.75;4915709;28;20031;-73
2021/10/26 09:06:04;;;;;;;16.08;6.15;;;;;;;11.98;85.38;101858.22;4926135;28;20198;-74
2021/10/26 09:08:30;;;;;;;20.00;6.20;;;;;;;11.97;84.78;101864.41;4940819;28;20506;-75
2021/10/26 09:17:29;;;;;;;9.70;4.90;;;;;;;12.08;84.32;101872.84;4955237;28;20035;-73
2021/10/26 09:20:15;;;;;;;13.13;4.95;;;;;;;12.01;83.47;101874.38;4917265;28;20105;-74
2021/10/26 09:22:51;;;;;;;8.57;4.80;;;;;;;12.08;83.72;101866.84;4915990;28;20098;-73
2021/10/26 09:25:30;;;;;;;18.27;5.22;;;;;;;12.09;83.72;101868.47;4922997;28;20035;-75
2021/10/26 09:28:26;;;;;;;18.50;4.95;;;;;;;12.29;83.11;101869.25;4916564;28;20046;-74
2021/10/26 09:31:05;;;;;;;13.80;4.43;;;;;;;12.28;83.31;101862.41;4900536;28;20047;-74
2021/10/26 09:33:39;;;;;;;17.30;4.60;;;;;;;12.23;82.49;101856.81;4932565;28;20492;-74
2021/10/26 09:36:32;;;;;;;16.80;5.18;;;;;;;12.44;82.04;101851.41;4904151;28;20062;-73
2021/10/26 09:39:04;;;;;;;8.30;4.18;;;;;;;12.46;81.64;101863.31;4933709;28;20063;-73
2021/10/26 09:41:54;;;;;;;11.60;4.32;;;;;;;12.42;81.41;101861.97;4917875;28;20077;-74
2021/10/26 09:44:23;;;;;;;17.75;3.92;;;;;;;12.62;81.12;101867.91;4924899;28;20062;-75
2021/10/26 09:47:05;;;;;;;11.15;3.53;;;;;;;12.47;81.22;101874.56;4921969;28;20273;-74
2021/10/26 09:49:34;;;;;;;16.63;4.10;;;;;;;12.63;81.12;101872.16;4916188;28;20528;-72
2021/10/26 09:52:30;;;;;;;11.20;4.00;;;;;;;12.79;80.11;101870.69;4903101;28;20464;-73
2021/10/26 09:54:58;;;;;;;14.70;3.92;;;;;;;12.80;79.46;101864.53;4882885;28;20039;-74
2021/10/26 09:57:35;;;;;;;15.05;3.50;;;;;;;12.74;80.22;101867.72;4986507;28;20038;-72
2021/10/26 10:00:00;;;;;;;11.82;3.15;;;;;;;12.73;80.24;101861.69;4908441;28;20470;-74
2021/10/26 10:02:26;;;;;;;11.80;3.08;;;;;;;12.77;80.62;101865.66;4930330;28;20434;-73
2021/10/26 10:04:54;;;;;;;9.35;3.45;;;;;;;12.77;79.94;101859.63;4924671;28;20040;-73
2021/10/26 10:07:29;;;;;;;18.02;3.58;;;;;;;12.84;79.93;101863.28;4926406;28;20040;-74
2021/10/26 10:09:56;;;;;;;14.40;3.55;;;;;;;12.69;79.36;101865.53;4991426;28;20046;-74
2021/10/26 10:12:23;;;;;;;11.85;3.10;;;;;;;12.74;79.36;101867.72;4925381;28;20040;-74
2021/10/26 10:14:53;;;;;;;10.55;3.63;;;;;;;12.93;79.17;101865.03;4924596;28;20517;-73
2021/10/26 10:17:21;;;;;;;9.57;2.88;;;;;;;13.15;78.58;101876.81;4920278;28;20492;-75
2021/10/26 10:19:52;;;;;;;12.40;3.25;;;;;;;13.08;77.81;101874.97;4922957;28;20504;-73
2021/10/26 10:22:24;;;;;;;9.15;2.67;;;;;;;13.12;78.38;101871.91;4928284;28;20029;-74
2021/10/26 10:24:54;;;;;;;16.65;3.85;;;;;;;13.29;77.43;101865.06;4939481;28;20028;-77
2021/10/26 10:27:21;;;;;;;12.57;3.38;;;;;;;13.28;77.26;101860.84;4925022;28;20036;-73
2021/10/26 10:29:47;;;;;;;7.75;2.72;;;;;;;13.17;77.36;101861.06;4919736;28;20043;-75
2021/10/26 10:32:13;;;;;;;13.13;3.05;;;;;;;13.24;77.11;101856.88;4920660;29;20042;-75
2021/10/26 10:34:39;;;;;;;8.80;2.50;;;;;;;13.20;76.87;101858.97;4931486;28;20126;-75
2021/10/26 10:37:04;;;;;;;10.52;2.85;;;;;;;13.18;77.03;101863.50;4926668;28;20055;-75
2021/10/26 10:39:35;;;;;;;8.63;2.70;;;;;;;13.18;76.19;101863.50;4926135;28;20459;-73
2021/10/26 10:42:25;;;;;;;8.88;2.42;;;;;;;13.13;76.08;101863.13;4946408;28;20036;-73
2021/10/26 10:44:55;;;;;;;7.45;2.58;;;;;;;13.17;76.51;101866.28;4935574;29;20189;-73
2021/10/26 10:47:39;;;;;;;6.68;2.53;;;;;;;13.07;76.30;101876.72;4929401;28;20051;-74
2021/10/26 10:50:23;;;;;;;10.82;2.75;;;;;;;13.17;75.90;101868.88;4927420;28;20030;-74
2021/10/26 10:53:27;;;;;;;9.93;2.70;;;;;;;13.08;76.77;101867.97;4919130;28;20054;-73
2021/10/26 10:56:16;;;;;;;15.85;3.00;;;;;;;13.09;76.09;101872.22;4923660;28;20051;-74
2021/10/26 10:58:43;;;;;;;9.90;2.60;;;;;;;13.23;76.16;101874.28;4920219;28;20484;-73
2021/10/26 11:01:36;;;;;;;9.48;3.53;;;;;;;13.25;75.85;101871.56;4921006;28;20047;-73
2021/10/26 11:04:26;;;;;;;10.57;2.55;;;;;;;13.37;75.52;101866.97;4918814;28;20113;-75
2021/10/26 11:06:55;;;;;;;10.70;2.30;;;;;;;13.42;74.76;101875.97;4926722;28;20041;-74
2021/10/26 11:09:38;;;;;;;12.13;2.90;;;;;;;13.30;75.20;101866.75;4925626;28;20130;-74
2021/10/26 11:12:07;;;;;;;8.80;3.28;;;;;;;13.37;75.41;101877.38;4918180;28;20397;-74
2021/10/26 11:15:02;;;;;;;11.40;2.60;;;;;;;13.41;75.43;101874.34;4920421;29;20114;-73
2021/10/26 11:17:34;;;;;;;12.35;2.78;;;;;;;13.47;75.95;101877.31;4945265;28;20174;-74
2021/10/26 11:20:11;;;;;;;10.30;3.97;;;;;;;13.52;75.79;101869.88;4923308;28;20043;-72
2021/10/26 11:22:45;;;;;;;8.63;3.50;;;;;;;13.67;74.88;101860.56;4920893;28;20441;-75
2021/10/26 11:25:34;;;;;;;10.98;3.38;;;;;;;13.65;75.37;101861.69;4920025;29;20040;-72
2021/10/26 11:28:24;;;;;;;8.68;3.13;;;;;;;13.76;75.40;101862.25;4925830;28;20071;-74
2021/10/26 11:30:56;;;;;;;11.80;3.08;;;;;;;13.86;74.53;101851.75;4903967;28;20043;-73
2021/10/26 11:33:22;;;;;;;13.38;2.50;;;;;;;13.98;73.68;101841.91;4921567;28;20027;-74
2021/10/26 11:35:52;;;;;;;11.13;2.22;;;;;;;13.97;73.61;101850.69;4920520;28;21141;-75
2021/10/26 11:38:22;;;;;;;7.18;2.90;;;;;;;13.81;72.78;101846.19;4939361;28;20031;-73
2021/10/26 11:40:51;;;;;;;5.30;2.45;;;;;;;13.75;73.62;101851.97;4928219;29;20070;-74
2021/10/26 11:43:17;;;;;;;5.68;2.65;;;;;;;13.92;73.62;101838.13;4928480;28;20035;-74
2021/10/26 11:46:06;;;;;;;5.28;2.40;;;;;;;13.93;73.40;101844.13;4912119;28;20191;-74
2021/10/26 11:48:42;;;;;;;11.80;3.08;;;;;;;14.09;73.40;101832.97;4926114;28;20059;-74
2021/10/26 11:51:37;;;;;;;7.68;2.33;;;;;;;14.07;72.70;101834.94;4930502;28;20492;-74